sensor_id;sensor_type;location;lat;lon;timestamp;pressure;altitude;pressure_sealevel;temperature;humidity
28626;BME280;18905;42.668;23.364;2023-02-12T00:01:19;96044.84;;;1.10;54.14
28626;BME280;18905;42.668;23.364;2023-02-12T00:03:44;96042.16;;;1.21;54.48
28626;BME280;18905;42.668;23.364;2023-02-12T00:06:10;96034.78;;;1.12;54.69
28626;BME280;18905;42.668;23.364;2023-02-12T00:08:35;96033.38;;;1.21;54.71
28626;BME280;18905;42.668;23.364;2023-02-12T00:11:11;96022.16;;;1.47;54.62
28626;BME280;18905;42.668;23.364;2023-02-12T00:13:37;96041.22;;;1.27;54.93
28626;BME280;18905;42.668;23.364;2023-02-12T00:16:03;96042.16;;;1.21;55.07
28626;BME280;18905;42.668;23.364;2023-02-12T00:18:28;96033.81;;;1.29;54.93
28626;BME280;18905;42.668;23.364;2023-02-12T00:20:54;96045.47;;;1.40;55.11
28626;BME280;18905;42.668;23.364;2023-02-12T00:23:19;96045.06;;;1.20;54.85
28626;BME280;18905;42.668;23.364;2023-02-12T00:25:45;96036.97;;;1.15;54.87
28626;BME280;18905;42.668;23.364;2023-02-12T00:28:10;96038.75;;;1.37;54.69
28626;BME280;18905;42.668;23.364;2023-02-12T00:30:35;96042.41;;;1.48;54.75
28626;BME280;18905;42.668;23.364;2023-02-12T00:33:01;96037.06;;;1.20;55.42
28626;BME280;18905;42.668;23.364;2023-02-12T00:35:26;96035.25;;;1.20;54.94
28626;BME280;18905;42.668;23.364;2023-02-12T00:37:51;96026.66;;;1.18;54.78
28626;BME280;18905;42.668;23.364;2023-02-12T00:40:17;96034.59;;;1.30;54.60
28626;BME280;18905;42.668;23.364;2023-02-12T00:42:43;96029.69;;;1.50;54.11
28626;BME280;18905;42.668;23.364;2023-02-12T00:45:08;96019.34;;;1.53;54.12
28626;BME280;18905;42.668;23.364;2023-02-12T00:47:34;96024.41;;;1.38;53.97
28626;BME280;18905;42.668;23.364;2023-02-12T00:49:59;96027.88;;;1.39;53.64
28626;BME280;18905;42.668;23.364;2023-02-12T00:52:24;96021.53;;;1.40;54.19
28626;BME280;18905;42.668;23.364;2023-02-12T00:54:50;96013.81;;;1.55;53.94
28626;BME280;18905;42.668;23.364;2023-02-12T00:57:15;96006.59;;;1.55;53.88
28626;BME280;18905;42.668;23.364;2023-02-12T00:59:40;95996.16;;;1.37;54.56
28626;BME280;18905;42.668;23.364;2023-02-12T01:02:06;96002.44;;;1.31;54.64
28626;BME280;18905;42.668;23.364;2023-02-12T01:04:32;95989.56;;;1.12;55.07
28626;BME280;18905;42.668;23.364;2023-02-12T01:06:57;96001.38;;;1.04;54.78
28626;BME280;18905;42.668;23.364;2023-02-12T01:09:25;96003.44;;;1.14;54.87
28626;BME280;18905;42.668;23.364;2023-02-12T01:11:51;96002.75;;;1.07;55.21
28626;BME280;18905;42.668;23.364;2023-02-12T01:14:16;96002.56;;;0.97;55.46
28626;BME280;18905;42.668;23.364;2023-02-12T01:16:41;96006.66;;;1.16;55.10
28626;BME280;18905;42.668;23.364;2023-02-12T01:19:07;96006.63;;;1.27;54.68
28626;BME280;18905;42.668;23.364;2023-02-12T01:21:34;96011.16;;;1.27;54.64
28626;BME280;18905;42.668;23.364;2023-02-12T01:24:00;96027.78;;;1.34;55.07
28626;BME280;18905;42.668;23.364;2023-02-12T01:26:26;96014.84;;;1.26;54.70
28626;BME280;18905;42.668;23.364;2023-02-12T01:28:53;96020.47;;;1.41;54.94
28626;BME280;18905;42.668;23.364;2023-02-12T01:31:20;96017.91;;;1.46;55.14
28626;BME280;18905;42.668;23.364;2023-02-12T01:33:46;96017.66;;;1.47;54.83
28626;BME280;18905;42.668;23.364;2023-02-12T01:36:12;96015.97;;;1.58;54.87
28626;BME280;18905;42.668;23.364;2023-02-12T01:38:38;96007.25;;;1.46;55.03
28626;BME280;18905;42.668;23.364;2023-02-12T01:41:03;96007.72;;;1.43;55.20
28626;BME280;18905;42.668;23.364;2023-02-12T01:43:29;96000.59;;;1.60;54.84
28626;BME280;18905;42.668;23.364;2023-02-12T01:45:55;96002.72;;;1.46;55.41
28626;BME280;18905;42.668;23.364;2023-02-12T01:48:21;95999.28;;;1.18;56.01
28626;BME280;18905;42.668;23.364;2023-02-12T01:50:47;95992.09;;;1.18;56.83
28626;BME280;18905;42.668;23.364;2023-02-12T01:53:14;95985.88;;;1.41;56.58
28626;BME280;18905;42.668;23.364;2023-02-12T01:55:45;95986.75;;;1.18;56.49
28626;BME280;18905;42.668;23.364;2023-02-12T01:58:10;95981.88;;;1.27;57.03
28626;BME280;18905;42.668;23.364;2023-02-12T02:00:36;95981.03;;;1.10;56.97
28626;BME280;18905;42.668;23.364;2023-02-12T02:03:03;95984.75;;;1.09;57.32
28626;BME280;18905;42.668;23.364;2023-02-12T02:08:12;95977.84;;;1.24;56.62
28626;BME280;18905;42.668;23.364;2023-02-12T02:10:38;95989.69;;;1.45;56.51
28626;BME280;18905;42.668;23.364;2023-02-12T02:13:04;95993.81;;;1.24;56.77
28626;BME280;18905;42.668;23.364;2023-02-12T02:15:48;96002.31;;;1.10;57.65
28626;BME280;18905;42.668;23.364;2023-02-12T02:18:18;96005.34;;;1.02;57.92
28626;BME280;18905;42.668;23.364;2023-02-12T02:28:09;95989.19;;;0.29;61.76
28626;BME280;18905;42.668;23.364;2023-02-12T02:30:42;95982.25;;;0.40;61.98
28626;BME280;18905;42.668;23.364;2023-02-12T02:33:15;95976.31;;;0.49;61.86
28626;BME280;18905;42.668;23.364;2023-02-12T02:38:46;95975.84;;;0.64;62.79
28626;BME280;18905;42.668;23.364;2023-02-12T02:41:23;95964.38;;;0.75;62.39
28626;BME280;18905;42.668;23.364;2023-02-12T02:43:52;95982.25;;;0.40;64.95
28626;BME280;18905;42.668;23.364;2023-02-12T02:48:52;95982.75;;;0.76;63.50
28626;BME280;18905;42.668;23.364;2023-02-12T02:51:20;95986.47;;;0.75;63.04
28626;BME280;18905;42.668;23.364;2023-02-12T02:53:49;95993.38;;;0.76;63.80
28626;BME280;18905;42.668;23.364;2023-02-12T02:56:18;95994.41;;;0.87;64.79
28626;BME280;18905;42.668;23.364;2023-02-12T02:58:50;95996.06;;;1.04;63.24
28626;BME280;18905;42.668;23.364;2023-02-12T03:01:18;95992.75;;;0.97;62.44
28626;BME280;18905;42.668;23.364;2023-02-12T03:03:47;95996.09;;;0.93;62.67
28626;BME280;18905;42.668;23.364;2023-02-12T03:06:17;95991.94;;;0.97;63.03
28626;BME280;18905;42.668;23.364;2023-02-12T03:08:57;95990.91;;;0.86;63.23
28626;BME280;18905;42.668;23.364;2023-02-12T03:11:29;95989.44;;;0.79;64.29
28626;BME280;18905;42.668;23.364;2023-02-12T03:16:32;95983.81;;;0.64;66.47
28626;BME280;18905;42.668;23.364;2023-02-12T03:19:04;95983.63;;;0.54;67.51
28626;BME280;18905;42.668;23.364;2023-02-12T03:21:49;95950.13;;;0.29;68.41
28626;BME280;18905;42.668;23.364;2023-02-12T03:24:19;95976.91;;;0.51;68.50
28626;BME280;18905;42.668;23.364;2023-02-12T03:26:47;95976.91;;;0.51;69.00
28626;BME280;18905;42.668;23.364;2023-02-12T03:29:13;95972.63;;;0.38;69.81
28626;BME280;18905;42.668;23.364;2023-02-12T03:34:19;95973.22;;;0.92;68.56
28626;BME280;18905;42.668;23.364;2023-02-12T03:36:56;95972.31;;;0.86;68.53
28626;BME280;18905;42.668;23.364;2023-02-12T03:49:35;95976.84;;;0.86;67.17
28626;BME280;18905;42.668;23.364;2023-02-12T03:52:02;95977.31;;;0.83;69.08
28626;BME280;18905;42.668;23.364;2023-02-12T03:54:28;95973.31;;;0.97;67.59
28626;BME280;18905;42.668;23.364;2023-02-12T03:56:55;95971.03;;;0.89;68.08
28626;BME280;18905;42.668;23.364;2023-02-12T03:59:22;95976.31;;;1.00;67.65
28626;BME280;18905;42.668;23.364;2023-02-12T04:01:48;95971.63;;;0.91;66.81
28626;BME280;18905;42.668;23.364;2023-02-12T04:04:15;95973.56;;;0.95;67.01
28626;BME280;18905;42.668;23.364;2023-02-12T04:06:41;95972.44;;;0.80;68.63
28626;BME280;18905;42.668;23.364;2023-02-12T04:09:08;95973.41;;;0.74;69.04
28626;BME280;18905;42.668;23.364;2023-02-12T04:14:28;95964.38;;;0.75;68.48
28626;BME280;18905;42.668;23.364;2023-02-12T04:27:40;95989.75;;;0.94;68.62
28626;BME280;18905;42.668;23.364;2023-02-12T04:33:13;95990.97;;;1.03;67.90
28626;BME280;18905;42.668;23.364;2023-02-12T04:40:27;95991.34;;;1.06;69.00
28626;BME280;18905;42.668;23.364;2023-02-12T04:48:03;95995.75;;;1.29;67.76
28626;BME280;18905;42.668;23.364;2023-02-12T04:55:40;95993.22;;;1.50;65.10
28626;BME280;18905;42.668;23.364;2023-02-12T04:58:06;96000.41;;;1.22;66.14
28626;BME280;18905;42.668;23.364;2023-02-12T05:00:31;96006.09;;;1.42;67.34
28626;BME280;18905;42.668;23.364;2023-02-12T05:02:57;95988.00;;;0.99;68.20
28626;BME280;18905;42.668;23.364;2023-02-12T05:05:23;95999.31;;;1.34;68.35
28626;BME280;18905;42.668;23.364;2023-02-12T05:07:48;95994.41;;;1.15;68.44
28626;BME280;18905;42.668;23.364;2023-02-12T05:10:13;95997.69;;;1.05;68.83
28626;BME280;18905;42.668;23.364;2023-02-12T05:12:39;95995.06;;;0.94;70.80
28626;BME280;18905;42.668;23.364;2023-02-12T05:15:04;96004.16;;;1.09;70.62
28626;BME280;18905;42.668;23.364;2023-02-12T05:17:30;96010.25;;;1.21;70.83
28626;BME280;18905;42.668;23.364;2023-02-12T05:19:55;96016.16;;;1.12;71.23
28626;BME280;18905;42.668;23.364;2023-02-12T05:22:21;96005.59;;;1.28;71.13
28626;BME280;18905;42.668;23.364;2023-02-12T05:24:46;96021.97;;;1.37;70.45
28626;BME280;18905;42.668;23.364;2023-02-12T05:27:12;96023.41;;;1.28;71.18
28626;BME280;18905;42.668;23.364;2023-02-12T05:29:37;96023.09;;;1.24;71.22
28626;BME280;18905;42.668;23.364;2023-02-12T05:32:02;96033.41;;;1.09;73.40
28626;BME280;18905;42.668;23.364;2023-02-12T05:34:28;96033.84;;;1.18;73.46
28626;BME280;18905;42.668;23.364;2023-02-12T05:36:53;96031.25;;;1.34;72.06
28626;BME280;18905;42.668;23.364;2023-02-12T05:39:19;96035.00;;;1.50;71.44
28626;BME280;18905;42.668;23.364;2023-02-12T05:41:44;96057.00;;;1.45;70.76
28626;BME280;18905;42.668;23.364;2023-02-12T05:44:10;96045.84;;;1.32;73.87
28626;BME280;18905;42.668;23.364;2023-02-12T05:46:36;96042.16;;;1.21;75.25
28626;BME280;18905;42.668;23.364;2023-02-12T05:49:01;96052.69;;;1.28;75.91
28626;BME280;18905;42.668;23.364;2023-02-12T05:51:27;96043.81;;;1.39;77.39
28626;BME280;18905;42.668;23.364;2023-02-12T05:53:55;96049.88;;;0.95;81.48
28626;BME280;18905;42.668;23.364;2023-02-12T05:56:22;96056.41;;;1.15;83.56
28626;BME280;18905;42.668;23.364;2023-02-12T05:58:51;96053.69;;;0.99;87.14
28626;BME280;18905;42.668;23.364;2023-02-12T06:01:17;96043.47;;;1.07;90.17
28626;BME280;18905;42.668;23.364;2023-02-12T06:03:43;96044.06;;;0.98;94.84
28626;BME280;18905;42.668;23.364;2023-02-12T06:06:09;96053.00;;;0.92;97.29
28626;BME280;18905;42.668;23.364;2023-02-12T06:08:35;96054.59;;;1.04;97.39
28626;BME280;18905;42.668;23.364;2023-02-12T06:11:04;96054.28;;;0.89;98.40
28626;BME280;18905;42.668;23.364;2023-02-12T06:13:30;96055.69;;;0.80;100.00
28626;BME280;18905;42.668;23.364;2023-02-12T06:15:56;96057.63;;;0.85;100.00
28626;BME280;18905;42.668;23.364;2023-02-12T06:18:22;96062.47;;;0.88;100.00
28626;BME280;18905;42.668;23.364;2023-02-12T06:20:48;96062.03;;;0.91;100.00
28626;BME280;18905;42.668;23.364;2023-02-12T06:23:13;96066.03;;;1.05;100.00
28626;BME280;18905;42.668;23.364;2023-02-12T06:25:38;96062.13;;;0.96;100.00
28626;BME280;18905;42.668;23.364;2023-02-12T06:28:04;96065.00;;;1.06;100.00
28626;BME280;18905;42.668;23.364;2023-02-12T06:30:29;96061.66;;;1.10;100.00
28626;BME280;18905;42.668;23.364;2023-02-12T06:32:56;96072.63;;;1.02;100.00
28626;BME280;18905;42.668;23.364;2023-02-12T06:35:21;96062.13;;;0.96;100.00
28626;BME280;18905;42.668;23.364;2023-02-12T06:37:46;96073.91;;;1.00;100.00
28626;BME280;18905;42.668;23.364;2023-02-12T06:40:12;96079.16;;;0.72;100.00
28626;BME280;18905;42.668;23.364;2023-02-12T06:42:37;96073.34;;;0.86;100.00
28626;BME280;18905;42.668;23.364;2023-02-12T06:45:03;96072.47;;;0.69;100.00
28626;BME280;18905;42.668;23.364;2023-02-12T06:47:28;96080.31;;;0.76;100.00
28626;BME280;18905;42.668;23.364;2023-02-12T06:49:56;96075.44;;;0.96;100.00
28626;BME280;18905;42.668;23.364;2023-02-12T06:52:21;96070.38;;;0.60;100.00
28626;BME280;18905;42.668;23.364;2023-02-12T06:54:46;96074.63;;;0.84;100.00
28626;BME280;18905;42.668;23.364;2023-02-12T06:57:12;96081.00;;;0.83;100.00
28626;BME280;18905;42.668;23.364;2023-02-12T06:59:37;96083.19;;;0.86;100.00
28626;BME280;18905;42.668;23.364;2023-02-12T07:02:02;96093.69;;;2.16;100.00
28626;BME280;18905;42.668;23.364;2023-02-12T07:04:27;96082.22;;;2.81;100.00
28626;BME280;18905;42.668;23.364;2023-02-12T07:06:53;96074.88;;;2.39;100.00
28626;BME280;18905;42.668;23.364;2023-02-12T07:09:18;96087.34;;;1.89;100.00
28626;BME280;18905;42.668;23.364;2023-02-12T07:11:43;96070.75;;;1.54;100.00
28626;BME280;18905;42.668;23.364;2023-02-12T07:14:14;96082.03;;;1.33;100.00
28626;BME280;18905;42.668;23.364;2023-02-12T07:16:40;96089.63;;;1.52;100.00
28626;BME280;18905;42.668;23.364;2023-02-12T07:19:05;96091.31;;;1.30;100.00
28626;BME280;18905;42.668;23.364;2023-02-12T07:21:31;96089.78;;;0.95;100.00
28626;BME280;18905;42.668;23.364;2023-02-12T07:23:56;96087.88;;;1.07;100.00
28626;BME280;18905;42.668;23.364;2023-02-12T07:26:21;96085.06;;;1.25;100.00
28626;BME280;18905;42.668;23.364;2023-02-12T07:28:47;96083.63;;;0.94;100.00
28626;BME280;18905;42.668;23.364;2023-02-12T07:31:22;96079.72;;;0.85;100.00
28626;BME280;18905;42.668;23.364;2023-02-12T07:33:48;96082.75;;;1.17;100.00
28626;BME280;18905;42.668;23.364;2023-02-12T07:36:17;96092.31;;;0.90;100.00
28626;BME280;18905;42.668;23.364;2023-02-12T07:38:43;96096.25;;;0.99;100.00
28626;BME280;18905;42.668;23.364;2023-02-12T07:41:09;96087.56;;;0.92;100.00
28626;BME280;18905;42.668;23.364;2023-02-12T07:43:36;96104.31;;;1.04;100.00
28626;BME280;18905;42.668;23.364;2023-02-12T07:46:07;96109.75;;;1.09;100.00
28626;BME280;18905;42.668;23.364;2023-02-12T07:48:32;96107.97;;;1.14;100.00
28626;BME280;18905;42.668;23.364;2023-02-12T07:51:01;96099.63;;;1.34;100.00
28626;BME280;18905;42.668;23.364;2023-02-12T07:53:26;96103.13;;;1.23;100.00
28626;BME280;18905;42.668;23.364;2023-02-12T07:55:52;96102.06;;;1.24;100.00
28626;BME280;18905;42.668;23.364;2023-02-12T07:58:17;96105.56;;;1.24;100.00
28626;BME280;18905;42.668;23.364;2023-02-12T08:00:42;96099.44;;;1.12;100.00
28626;BME280;18905;42.668;23.364;2023-02-12T08:03:07;96094.25;;;1.06;100.00
28626;BME280;18905;42.668;23.364;2023-02-12T08:05:32;96099.00;;;1.04;100.00
28626;BME280;18905;42.668;23.364;2023-02-12T08:07:58;96103.03;;;1.18;100.00
28626;BME280;18905;42.668;23.364;2023-02-12T08:10:23;96105.03;;;0.88;100.00
28626;BME280;18905;42.668;23.364;2023-02-12T08:12:48;96106.84;;;1.61;100.00
28626;BME280;18905;42.668;23.364;2023-02-12T08:15:13;96106.69;;;1.68;100.00
28626;BME280;18905;42.668;23.364;2023-02-12T08:17:39;96106.13;;;2.10;100.00
28626;BME280;18905;42.668;23.364;2023-02-12T08:20:06;96077.63;;;1.94;100.00
28626;BME280;18905;42.668;23.364;2023-02-12T08:22:31;96117.34;;;1.68;100.00
28626;BME280;18905;42.668;23.364;2023-02-12T08:24:57;96116.72;;;1.77;100.00
28626;BME280;18905;42.668;23.364;2023-02-12T08:27:22;96124.88;;;1.59;100.00
28626;BME280;18905;42.668;23.364;2023-02-12T08:29:47;96124.00;;;1.54;100.00
28626;BME280;18905;42.668;23.364;2023-02-12T08:32:12;96124.31;;;1.57;100.00
28626;BME280;18905;42.668;23.364;2023-02-12T08:34:38;96130.03;;;1.77;100.00
28626;BME280;18905;42.668;23.364;2023-02-12T08:37:04;96128.19;;;1.38;100.00
28626;BME280;18905;42.668;23.364;2023-02-12T08:39:29;96142.91;;;1.29;100.00
28626;BME280;18905;42.668;23.364;2023-02-12T08:41:55;96149.91;;;1.47;100.00
28626;BME280;18905;42.668;23.364;2023-02-12T08:44:21;96141.69;;;1.48;100.00
28626;BME280;18905;42.668;23.364;2023-02-12T08:46:47;96156.00;;;1.08;100.00
28626;BME280;18905;42.668;23.364;2023-02-12T08:49:15;96154.25;;;1.02;100.00
28626;BME280;18905;42.668;23.364;2023-02-12T08:51:44;96153.31;;;1.42;100.00
28626;BME280;18905;42.668;23.364;2023-02-12T08:54:11;96143.97;;;1.28;100.00
28626;BME280;18905;42.668;23.364;2023-02-12T08:56:37;96144.31;;;1.20;100.00
28626;BME280;18905;42.668;23.364;2023-02-12T08:59:03;96151.81;;;1.12;100.00
28626;BME280;18905;42.668;23.364;2023-02-12T09:01:30;96158.66;;;1.31;100.00
28626;BME280;18905;42.668;23.364;2023-02-12T09:03:55;96165.56;;;1.32;100.00
28626;BME280;18905;42.668;23.364;2023-02-12T09:06:21;96163.59;;;1.27;100.00
28626;BME280;18905;42.668;23.364;2023-02-12T09:08:47;96159.69;;;0.95;100.00
28626;BME280;18905;42.668;23.364;2023-02-12T09:11:13;96165.00;;;1.07;100.00
28626;BME280;18905;42.668;23.364;2023-02-12T09:13:41;96164.53;;;1.21;100.00
28626;BME280;18905;42.668;23.364;2023-02-12T09:16:06;96163.97;;;1.31;100.00
28626;BME280;18905;42.668;23.364;2023-02-12T09:18:32;96168.22;;;1.43;100.00
28626;BME280;18905;42.668;23.364;2023-02-12T09:21:05;96174.97;;;1.74;100.00
28626;BME280;18905;42.668;23.364;2023-02-12T09:23:30;96177.13;;;1.88;100.00
28626;BME280;18905;42.668;23.364;2023-02-12T09:25:56;96175.47;;;1.59;100.00
28626;BME280;18905;42.668;23.364;2023-02-12T09:28:21;96183.78;;;1.74;100.00
28626;BME280;18905;42.668;23.364;2023-02-12T09:30:46;96174.97;;;1.74;100.00
28626;BME280;18905;42.668;23.364;2023-02-12T09:33:12;96182.25;;;1.67;100.00
28626;BME280;18905;42.668;23.364;2023-02-12T09:35:38;96186.75;;;1.78;100.00
28626;BME280;18905;42.668;23.364;2023-02-12T09:38:04;96184.81;;;1.62;100.00
28626;BME280;18905;42.668;23.364;2023-02-12T09:40:35;96188.56;;;1.49;100.00
28626;BME280;18905;42.668;23.364;2023-02-12T09:45:45;96182.81;;;2.08;100.00
28626;BME280;18905;42.668;23.364;2023-02-12T09:48:30;96181.97;;;1.52;100.00
28626;BME280;18905;42.668;23.364;2023-02-12T09:50:59;96193.34;;;1.87;100.00
28626;BME280;18905;42.668;23.364;2023-02-12T09:53:29;96190.81;;;1.80;100.00
28626;BME280;18905;42.668;23.364;2023-02-12T09:55:55;96193.09;;;1.88;100.00
28626;BME280;18905;42.668;23.364;2023-02-12T10:00:52;96196.00;;;1.87;100.00
28626;BME280;18905;42.668;23.364;2023-02-12T10:03:17;96189.25;;;1.96;100.00
28626;BME280;18905;42.668;23.364;2023-02-12T10:10:44;96195.41;;;2.13;100.00
28626;BME280;18905;42.668;23.364;2023-02-12T10:16:13;96193.22;;;2.38;100.00
28626;BME280;18905;42.668;23.364;2023-02-12T10:26:49;96192.94;;;3.00;100.00
28626;BME280;18905;42.668;23.364;2023-02-12T10:29:20;96182.59;;;2.87;100.00
28626;BME280;18905;42.668;23.364;2023-02-12T10:31:48;96192.38;;;2.82;100.00
28626;BME280;18905;42.668;23.364;2023-02-12T10:34:19;96195.22;;;2.92;100.00
28626;BME280;18905;42.668;23.364;2023-02-12T10:36:46;96191.25;;;2.61;100.00
28626;BME280;18905;42.668;23.364;2023-02-12T10:39:14;96194.28;;;2.37;100.00
28626;BME280;18905;42.668;23.364;2023-02-12T10:41:44;96186.44;;;2.47;100.00
28626;BME280;18905;42.668;23.364;2023-02-12T10:44:10;96197.94;;;2.47;100.00
28626;BME280;18905;42.668;23.364;2023-02-12T10:46:36;96195.53;;;2.79;100.00
28626;BME280;18905;42.668;23.364;2023-02-12T10:49:01;96189.94;;;2.47;100.00
28626;BME280;18905;42.668;23.364;2023-02-12T10:53:55;96207.09;;;2.68;100.00
28626;BME280;18905;42.668;23.364;2023-02-12T10:56:21;96199.72;;;3.08;100.00
28626;BME280;18905;42.668;23.364;2023-02-12T10:58:51;96201.66;;;3.12;100.00
28626;BME280;18905;42.668;23.364;2023-02-12T11:01:33;96210.81;;;3.00;100.00
28626;BME280;18905;42.668;23.364;2023-02-12T11:04:19;96199.84;;;3.18;100.00
28626;BME280;18905;42.668;23.364;2023-02-12T11:06:57;96193.56;;;3.24;100.00
28626;BME280;18905;42.668;23.364;2023-02-12T11:09:27;96196.50;;;3.06;100.00
28626;BME280;18905;42.668;23.364;2023-02-12T11:11:52;96193.50;;;3.02;100.00
28626;BME280;18905;42.668;23.364;2023-02-12T11:14:18;96191.78;;;3.13;100.00
28626;BME280;18905;42.668;23.364;2023-02-12T11:16:57;96187.44;;;3.07;100.00
28626;BME280;18905;42.668;23.364;2023-02-12T11:19:29;96196.16;;;3.57;100.00
28626;BME280;18905;42.668;23.364;2023-02-12T11:22:10;96190.47;;;3.32;100.00
28626;BME280;18905;42.668;23.364;2023-02-12T11:24:43;96198.97;;;3.29;100.00
28626;BME280;18905;42.668;23.364;2023-02-12T11:29:37;96191.63;;;3.79;100.00
28626;BME280;18905;42.668;23.364;2023-02-12T11:32:04;96182.41;;;4.13;100.00
28626;BME280;18905;42.668;23.364;2023-02-12T11:34:32;96191.97;;;4.09;100.00
28626;BME280;18905;42.668;23.364;2023-02-12T11:41:59;96187.16;;;3.84;100.00
28626;BME280;18905;42.668;23.364;2023-02-12T11:44:28;96189.84;;;3.84;100.00
28626;BME280;18905;42.668;23.364;2023-02-12T11:46:58;96190.47;;;4.18;100.00
28626;BME280;18905;42.668;23.364;2023-02-12T11:49:27;96191.19;;;4.08;100.00
28626;BME280;18905;42.668;23.364;2023-02-12T11:51:53;96192.91;;;4.46;100.00
28626;BME280;18905;42.668;23.364;2023-02-12T11:54:24;96188.81;;;4.12;100.00
28626;BME280;18905;42.668;23.364;2023-02-12T11:56:51;96190.28;;;4.24;100.00
28626;BME280;18905;42.668;23.364;2023-02-12T12:02:22;96199.13;;;4.25;100.00
28626;BME280;18905;42.668;23.364;2023-02-12T12:04:51;96190.81;;;4.48;100.00
28626;BME280;18905;42.668;23.364;2023-02-12T12:07:20;96193.38;;;4.38;100.00
28626;BME280;18905;42.668;23.364;2023-02-12T12:09:49;96200.75;;;4.04;100.00
28626;BME280;18905;42.668;23.364;2023-02-12T12:14:47;96191.00;;;4.15;100.00
28626;BME280;18905;42.668;23.364;2023-02-12T12:20:38;96199.41;;;4.28;100.00
28626;BME280;18905;42.668;23.364;2023-02-12T12:23:08;96204.31;;;4.63;100.00
28626;BME280;18905;42.668;23.364;2023-02-12T12:25:48;96208.44;;;4.22;100.00
28626;BME280;18905;42.668;23.364;2023-02-12T12:41:10;96215.41;;;4.50;100.00
28626;BME280;18905;42.668;23.364;2023-02-12T12:43:48;96205.53;;;4.50;100.00
28626;BME280;18905;42.668;23.364;2023-02-12T13:09:28;96232.91;;;5.20;97.33
28626;BME280;18905;42.668;23.364;2023-02-12T13:17:25;96224.81;;;4.79;98.72
28626;BME280;18905;42.668;23.364;2023-02-12T13:20:04;96226.13;;;4.50;100.00
28626;BME280;18905;42.668;23.364;2023-02-12T13:22:35;96233.59;;;4.74;99.86
28626;BME280;18905;42.668;23.364;2023-02-12T13:25:06;96228.53;;;4.78;100.00
28626;BME280;18905;42.668;23.364;2023-02-12T13:27:39;96237.06;;;4.75;99.95
28626;BME280;18905;42.668;23.364;2023-02-12T13:32:41;96235.56;;;4.84;99.20
28626;BME280;18905;42.668;23.364;2023-02-12T13:35:13;96221.31;;;4.78;99.89
28626;BME280;18905;42.668;23.364;2023-02-12T13:37:41;96223.50;;;4.81;100.00
28626;BME280;18905;42.668;23.364;2023-02-12T13:40:23;96237.00;;;4.43;100.00
28626;BME280;18905;42.668;23.364;2023-02-12T13:52:54;96254.03;;;4.11;100.00
28626;BME280;18905;42.668;23.364;2023-02-12T13:55:26;96248.16;;;4.14;100.00
28626;BME280;18905;42.668;23.364;2023-02-12T14:03:13;96254.34;;;4.14;100.00
28626;BME280;18905;42.668;23.364;2023-02-12T14:05:40;96260.78;;;4.40;100.00
28626;BME280;18905;42.668;23.364;2023-02-12T14:08:06;96266.66;;;4.63;100.00
28626;BME280;18905;42.668;23.364;2023-02-12T14:10:38;96277.69;;;4.45;100.00
28626;BME280;18905;42.668;23.364;2023-02-12T14:13:09;96275.41;;;4.32;100.00
28626;BME280;18905;42.668;23.364;2023-02-12T14:15:42;96271.19;;;4.15;100.00
28626;BME280;18905;42.668;23.364;2023-02-12T14:23:37;96282.28;;;4.50;100.00
28626;BME280;18905;42.668;23.364;2023-02-12T14:31:31;96297.03;;;4.31;100.00
28626;BME280;18905;42.668;23.364;2023-02-12T14:44:37;96307.38;;;4.01;100.00
28626;BME280;18905;42.668;23.364;2023-02-12T14:47:03;96313.91;;;4.10;100.00
28626;BME280;18905;42.668;23.364;2023-02-12T14:49:43;96317.81;;;4.24;100.00
28626;BME280;18905;42.668;23.364;2023-02-12T14:54:58;96313.06;;;4.31;100.00
28626;BME280;18905;42.668;23.364;2023-02-12T14:59:47;96327.53;;;3.92;100.00
28626;BME280;18905;42.668;23.364;2023-02-12T15:02:31;96332.50;;;4.05;100.00
28626;BME280;18905;42.668;23.364;2023-02-12T15:05:00;96340.03;;;4.08;100.00
28626;BME280;18905;42.668;23.364;2023-02-12T15:07:28;96338.63;;;4.22;100.00
28626;BME280;18905;42.668;23.364;2023-02-12T15:09:59;96342.38;;;3.83;100.00
28626;BME280;18905;42.668;23.364;2023-02-12T15:12:34;96357.69;;;4.09;100.00
28626;BME280;18905;42.668;23.364;2023-02-12T15:15:10;96355.09;;;4.14;100.00
28626;BME280;18905;42.668;23.364;2023-02-12T15:17:38;96353.38;;;3.86;100.00
28626;BME280;18905;42.668;23.364;2023-02-12T15:20:24;96370.50;;;3.52;100.00
28626;BME280;18905;42.668;23.364;2023-02-12T15:22:56;96378.81;;;3.72;100.00
28626;BME280;18905;42.668;23.364;2023-02-12T15:25:22;96386.75;;;3.34;100.00
28626;BME280;18905;42.668;23.364;2023-02-12T15:27:48;96387.13;;;3.43;100.00
28626;BME280;18905;42.668;23.364;2023-02-12T15:30:35;96392.31;;;3.66;100.00
28626;BME280;18905;42.668;23.364;2023-02-12T15:33:01;96405.84;;;3.76;100.00
28626;BME280;18905;42.668;23.364;2023-02-12T15:35:28;96406.50;;;3.83;100.00
28626;BME280;18905;42.668;23.364;2023-02-12T15:37:55;96404.38;;;3.85;100.00
28626;BME280;18905;42.668;23.364;2023-02-12T15:40:21;96409.88;;;3.95;100.00
28626;BME280;18905;42.668;23.364;2023-02-12T15:45:25;96416.59;;;3.81;100.00
28626;BME280;18905;42.668;23.364;2023-02-12T15:47:57;96417.03;;;3.89;100.00
28626;BME280;18905;42.668;23.364;2023-02-12T15:50:24;96426.81;;;3.84;100.00
28626;BME280;18905;42.668;23.364;2023-02-12T15:52:50;96417.13;;;3.78;100.00
28626;BME280;18905;42.668;23.364;2023-02-12T15:55:17;96421.47;;;3.84;100.00
28626;BME280;18905;42.668;23.364;2023-02-12T15:57:47;96423.91;;;3.69;100.00
28626;BME280;18905;42.668;23.364;2023-02-12T16:13:11;96460.09;;;3.76;100.00
28626;BME280;18905;42.668;23.364;2023-02-12T16:15:40;96457.34;;;3.88;100.00
28626;BME280;18905;42.668;23.364;2023-02-12T16:20:40;96475.47;;;3.86;100.00
28626;BME280;18905;42.668;23.364;2023-02-12T16:23:10;96476.91;;;3.77;100.00
28626;BME280;18905;42.668;23.364;2023-02-12T16:25:37;96479.34;;;3.95;100.00